createdAt,value
2023-11-01T00:00:24.943Z,8.45
2023-11-01T00:00:56.587Z,9.02
2023-11-01T00:01:28.211Z,8.07
2023-11-01T00:01:59.846Z,8.95
2023-11-01T00:02:31.682Z,7.93
2023-11-01T00:03:03.512Z,8.35
2023-11-01T00:03:35.252Z,7.30
2023-11-01T00:04:08.510Z,7.97
2023-11-01T00:04:40.177Z,7.82
2023-11-01T00:05:11.833Z,7.40
2023-11-01T00:05:43.472Z,8.75
2023-11-01T00:06:15.079Z,8.38
2023-11-01T00:06:46.759Z,8.65
2023-11-01T00:07:18.283Z,8.73
2023-11-01T00:07:49.900Z,7.50
2023-11-01T00:08:21.475Z,8.18
2023-11-01T00:08:53.177Z,7.88
2023-11-01T00:09:25.836Z,7.68
2023-11-01T00:09:57.693Z,8.52
2023-11-01T00:10:29.307Z,7.82
2023-11-01T00:11:00.981Z,7.68
2023-11-01T00:11:32.590Z,7.43
2023-11-01T00:12:04.781Z,7.30
2023-11-01T00:13:07.913Z,8.93
2023-11-01T00:13:39.457Z,8.73
2023-11-01T00:14:11.050Z,10.38
2023-11-01T00:14:42.668Z,7.78
2023-11-01T00:15:14.357Z,7.82
2023-11-01T00:15:45.946Z,8.13
2023-11-01T00:16:17.622Z,7.50
2023-11-01T00:17:15.492Z,8.00
2023-11-01T00:19:51.881Z,6.20
2023-11-01T00:20:45.536Z,7.45
2023-11-01T00:21:30.139Z,7.82
2023-11-01T00:23:01.300Z,6.43
2023-11-01T00:24:58.446Z,7.03
2023-11-01T00:25:47.534Z,7.55
2023-11-01T00:26:22.786Z,7.25
2023-11-01T00:26:59.149Z,7.30
2023-11-01T00:27:33.097Z,7.13
2023-11-01T00:28:04.947Z,7.43
2023-11-01T00:28:36.521Z,8.70
2023-11-01T00:29:08.149Z,7.38
2023-11-01T00:29:39.947Z,6.85
2023-11-01T00:30:11.917Z,6.95
2023-11-01T00:30:43.448Z,6.40
2023-11-01T00:31:15.316Z,5.75
2023-11-01T00:31:47.019Z,7.13
2023-11-01T00:32:18.781Z,6.72
2023-11-01T00:32:51.330Z,6.90
2023-11-01T00:33:23.196Z,5.97
2023-11-01T00:33:54.837Z,6.82
2023-11-01T00:34:26.507Z,7.30
2023-11-01T00:34:58.042Z,6.15
2023-11-01T00:35:29.648Z,7.00
2023-11-01T00:36:01.203Z,6.97
2023-11-01T00:36:32.802Z,7.03
2023-11-01T00:37:05.230Z,7.25
2023-11-01T00:37:36.836Z,6.35
2023-11-01T00:38:08.606Z,6.35
2023-11-01T00:38:40.371Z,6.78
2023-11-01T00:39:11.942Z,7.38
2023-11-01T00:39:43.504Z,6.80
2023-11-01T00:40:15.370Z,7.75
2023-11-01T00:40:46.968Z,7.10
2023-11-01T00:41:18.524Z,6.07
2023-11-01T00:41:50.089Z,6.72
2023-11-01T00:42:21.674Z,7.40
2023-11-01T00:42:53.274Z,6.20
2023-11-01T00:43:24.935Z,5.88
2023-11-01T00:43:56.510Z,6.47
2023-11-01T00:44:28.133Z,6.60
2023-11-01T00:44:59.921Z,6.18
2023-11-01T00:45:31.493Z,6.30
2023-11-01T00:46:03.266Z,7.55
2023-11-01T00:46:34.962Z,5.90
2023-11-01T00:47:06.901Z,5.60
2023-11-01T00:47:38.806Z,6.57
2023-11-01T00:48:10.439Z,5.80
2023-11-01T00:48:42.108Z,6.25
2023-11-01T00:49:13.694Z,6.22
2023-11-01T00:49:45.262Z,6.55
2023-11-01T00:50:17.022Z,6.85
2023-11-01T00:50:49.174Z,6.50
2023-11-01T00:51:20.796Z,6.28
2023-11-01T00:51:52.349Z,6.93
2023-11-01T00:52:24.045Z,7.03
2023-11-01T00:52:55.721Z,6.55
2023-11-01T00:53:27.393Z,5.95
2023-11-01T00:53:59.030Z,6.63
2023-11-01T00:54:30.731Z,5.90
2023-11-01T00:55:02.281Z,5.95
2023-11-01T00:55:33.830Z,6.45
2023-11-01T00:56:05.727Z,6.43
2023-11-01T00:56:37.304Z,5.65
2023-11-01T00:57:08.916Z,6.28
2023-11-01T00:57:41.870Z,6.03
2023-11-01T00:58:14.563Z,5.88
2023-11-01T00:58:46.386Z,6.28
2023-11-01T00:59:17.977Z,6.22
2023-11-01T00:59:49.544Z,7.25
2023-11-01T01:00:21.177Z,5.75
2023-11-01T01:00:52.784Z,5.20
2023-11-01T01:01:24.741Z,6.10
2023-11-01T01:01:56.332Z,5.35
2023-11-01T01:02:28.106Z,5.03
2023-11-01T01:02:59.823Z,5.47
2023-11-01T01:03:31.747Z,5.72
2023-11-01T01:04:03.699Z,4.90
2023-11-01T01:04:35.307Z,5.03
2023-11-01T01:05:07.262Z,5.30
2023-11-01T01:05:38.978Z,5.18
2023-11-01T01:06:10.638Z,4.75
2023-11-01T01:06:42.196Z,6.20
2023-11-01T01:07:13.915Z,5.93
2023-11-01T01:07:45.461Z,5.22
2023-11-01T01:08:17.043Z,6.03
2023-11-01T01:08:48.633Z,5.55
2023-11-01T01:09:20.233Z,5.28
2023-11-01T01:09:51.840Z,5.13
2023-11-01T01:10:23.389Z,5.85
2023-11-01T01:10:55.810Z,4.93
2023-11-01T01:11:27.448Z,6.65
2023-11-01T01:11:59.035Z,6.05
2023-11-01T01:12:30.573Z,5.50
2023-11-01T01:13:02.113Z,4.47
2023-11-01T01:13:33.678Z,5.50
2023-11-01T01:14:05.328Z,5.72
2023-11-01T01:14:37.195Z,6.20
2023-11-01T01:15:09.571Z,5.13
2023-11-01T01:15:41.159Z,5.30
2023-11-01T01:16:12.993Z,5.13
2023-11-01T01:16:45.126Z,6.57
2023-11-01T01:17:16.756Z,4.38
2023-11-01T01:17:48.407Z,5.00
2023-11-01T01:18:21.684Z,5.35
2023-11-01T01:18:53.393Z,5.53
2023-11-01T01:19:24.996Z,4.85
2023-11-01T01:19:56.579Z,4.90
2023-11-01T01:20:28.264Z,4.72
2023-11-01T01:20:59.881Z,5.30
2023-11-01T01:21:31.687Z,5.85
2023-11-01T01:22:03.424Z,5.47
2023-11-01T01:22:35.085Z,5.95
2023-11-01T01:23:06.642Z,4.82
2023-11-01T01:23:38.249Z,4.93
2023-11-01T01:24:10.130Z,4.90
2023-11-01T01:24:41.660Z,4.70
2023-11-01T01:25:13.283Z,4.80
2023-11-01T01:25:44.897Z,5.43
2023-11-01T01:26:16.574Z,4.70
2023-11-01T01:26:48.202Z,4.45
2023-11-01T01:27:19.789Z,5.15
2023-11-01T01:27:51.465Z,5.03
2023-11-01T01:28:23.105Z,5.25
2023-11-01T01:28:54.669Z,5.07
2023-11-01T01:29:26.372Z,5.93
2023-11-01T01:29:57.989Z,4.82
2023-11-01T01:30:29.552Z,4.45
2023-11-01T01:31:01.112Z,5.00
2023-11-01T01:31:34.406Z,4.15
2023-11-01T01:32:06.483Z,5.13
2023-11-01T01:32:38.227Z,4.45
2023-11-01T01:33:09.976Z,5.20
2023-11-01T01:33:45.377Z,5.97
2023-11-01T01:34:16.975Z,5.00
2023-11-01T01:34:48.693Z,4.53
2023-11-01T01:35:20.467Z,5.03
2023-11-01T01:35:52.061Z,4.78
2023-11-01T01:36:23.803Z,4.38
2023-11-01T01:36:55.510Z,4.10
2023-11-01T01:37:27.167Z,5.40
2023-11-01T01:37:58.975Z,4.93
2023-11-01T01:38:30.688Z,4.18
2023-11-01T01:39:02.255Z,3.97
2023-11-01T01:39:33.829Z,4.38
2023-11-01T01:40:06.357Z,4.60
2023-11-01T01:40:37.941Z,4.88
2023-11-01T01:41:09.615Z,4.07
2023-11-01T01:41:41.341Z,3.53
2023-11-01T01:42:14.661Z,3.88
2023-11-01T01:42:46.319Z,4.45
2023-11-01T01:43:22.471Z,3.67
2023-11-01T01:43:54.357Z,3.47
2023-11-01T01:44:26.018Z,4.47
2023-11-01T01:44:57.884Z,3.88
2023-11-01T01:45:29.496Z,3.90
2023-11-01T01:46:17.495Z,3.60
2023-11-01T01:46:49.617Z,4.15
2023-11-01T01:47:21.634Z,4.07
2023-11-01T01:47:53.679Z,4.45
2023-11-01T01:48:25.381Z,4.22
2023-11-01T01:48:58.805Z,4.22
2023-11-01T01:49:36.910Z,3.55
2023-11-01T01:50:11.758Z,3.47
2023-11-01T01:50:43.438Z,4.00
2023-11-01T01:51:15.324Z,4.10
2023-11-01T01:51:46.907Z,3.47
2023-11-01T01:52:18.654Z,6.70
2023-11-01T01:52:50.480Z,4.03
2023-11-01T01:53:22.160Z,4.55
2023-11-01T01:53:55.050Z,4.75
2023-11-01T01:54:27.445Z,4.28
2023-11-01T01:54:59.133Z,3.47
2023-11-01T01:55:30.879Z,3.85
2023-11-01T01:56:03.105Z,4.00
2023-11-01T01:56:35.612Z,3.17
2023-11-01T01:57:07.252Z,3.95
2023-11-01T01:57:39.775Z,4.57
2023-11-01T01:58:11.834Z,4.68
2023-11-01T01:58:45.844Z,3.90
2023-11-01T01:59:17.511Z,3.65
2023-11-01T01:59:49.745Z,3.92
2023-11-01T02:00:21.537Z,3.85
2023-11-01T02:00:53.999Z,3.40
2023-11-01T02:01:35.580Z,3.70
2023-11-01T02:02:14.625Z,3.92
2023-11-01T02:02:46.321Z,3.33
2023-11-01T02:03:18.247Z,3.60
2023-11-01T02:03:49.920Z,3.78
2023-11-01T02:04:21.554Z,3.92
2023-11-01T02:04:53.232Z,3.92
2023-11-01T02:05:24.932Z,3.92
2023-11-01T02:05:56.988Z,5.07
2023-11-01T02:06:28.763Z,3.28
2023-11-01T02:07:00.394Z,4.43
2023-11-01T02:07:32.011Z,3.75
2023-11-01T02:08:03.703Z,4.95
2023-11-01T02:08:37.292Z,4.13
2023-11-01T02:09:16.704Z,4.38
2023-11-01T02:09:48.542Z,4.55
2023-11-01T02:10:20.085Z,4.30
2023-11-01T02:10:52.509Z,4.40
2023-11-01T02:11:24.199Z,5.07
2023-11-01T02:11:55.960Z,3.92
2023-11-01T02:12:27.855Z,3.35
2023-11-01T02:13:09.750Z,4.20
2023-11-01T02:13:41.415Z,7.38
2023-11-01T02:14:13.466Z,4.15
2023-11-01T02:14:45.473Z,3.72
2023-11-01T02:15:17.703Z,4.53
2023-11-01T02:15:49.921Z,3.58
2023-11-01T02:16:21.502Z,3.88
2023-11-01T02:16:53.381Z,4.82
2023-11-01T02:17:25.020Z,3.75
2023-11-01T02:17:57.083Z,4.68
2023-11-01T02:18:28.982Z,3.75
2023-11-01T02:19:00.598Z,3.80
2023-11-01T02:19:32.225Z,3.97
2023-11-01T02:20:04.348Z,4.50
2023-11-01T02:20:37.059Z,4.72
2023-11-01T02:21:08.725Z,4.55
2023-11-01T02:21:40.323Z,3.97
2023-11-01T02:22:11.904Z,5.22
2023-11-01T02:22:43.602Z,5.03
2023-11-01T02:23:18.118Z,4.28
2023-11-01T02:23:50.638Z,3.83
2023-11-01T02:24:22.351Z,4.95
2023-11-01T02:24:54.628Z,3.75
2023-11-01T02:25:26.188Z,4.38
2023-11-01T02:25:57.842Z,5.50
2023-11-01T02:26:31.332Z,4.80
2023-11-01T02:27:04.239Z,6.30
2023-11-01T02:27:35.908Z,4.32
2023-11-01T02:28:08.902Z,4.28
2023-11-01T02:28:40.449Z,3.92
2023-11-01T02:29:12.769Z,4.22
2023-11-01T02:29:44.513Z,4.00
2023-11-01T02:30:18.180Z,4.65
2023-11-01T02:30:49.868Z,3.85
2023-11-01T02:31:21.629Z,4.15
2023-11-01T02:31:53.245Z,3.67
2023-11-01T02:32:28.788Z,4.35
2023-11-01T02:33:00.845Z,4.43
2023-11-01T02:33:32.806Z,4.38
2023-11-01T02:34:09.244Z,4.85
2023-11-01T02:34:40.881Z,4.20
2023-11-01T02:35:12.552Z,4.35
2023-11-01T02:35:44.191Z,4.35
2023-11-01T02:36:15.789Z,3.83
2023-11-01T02:36:47.472Z,3.88
2023-11-01T02:37:19.172Z,3.97
2023-11-01T02:37:50.760Z,3.72
2023-11-01T02:38:22.352Z,4.70
2023-11-01T02:38:54.001Z,3.90
2023-11-01T02:39:26.063Z,4.72
2023-11-01T02:39:57.754Z,4.72
2023-11-01T02:40:29.316Z,3.88
2023-11-01T02:41:01.774Z,3.83
2023-11-01T02:41:33.522Z,3.95
2023-11-01T02:42:05.603Z,3.78
2023-11-01T02:42:43.658Z,4.72
2023-11-01T02:43:16.351Z,4.13
2023-11-01T02:43:47.915Z,4.60
2023-11-01T02:44:19.545Z,4.15
2023-11-01T02:44:51.109Z,4.47
2023-11-01T02:45:23.094Z,3.50
2023-11-01T02:45:55.253Z,3.92
2023-11-01T02:46:26.846Z,4.05
2023-11-01T02:46:58.558Z,5.32
2023-11-01T02:47:30.242Z,4.07
2023-11-01T02:48:02.092Z,3.65
2023-11-01T02:48:33.692Z,3.60
2023-11-01T02:49:05.397Z,3.30
2023-11-01T02:49:38.015Z,4.47
2023-11-01T02:50:11.917Z,3.65
2023-11-01T02:50:43.494Z,3.97
2023-11-01T02:51:15.218Z,3.97
2023-11-01T02:51:47.565Z,3.08
2023-11-01T02:52:19.110Z,4.45
2023-11-01T02:52:50.709Z,3.90
2023-11-01T02:53:22.448Z,4.85
2023-11-01T02:53:54.211Z,3.50
2023-11-01T02:54:25.831Z,4.03
2023-11-01T02:54:57.470Z,3.88
2023-11-01T02:55:29.145Z,3.70
2023-11-01T02:56:00.964Z,2.72
2023-11-01T02:56:32.569Z,3.35
2023-11-01T02:57:04.307Z,3.90
2023-11-01T02:57:36.080Z,3.40
2023-11-01T02:58:07.667Z,3.15
2023-11-01T02:58:39.236Z,3.97
2023-11-01T02:59:10.960Z,4.03
2023-11-01T02:59:45.228Z,3.53
2023-11-01T03:00:21.093Z,3.40
2023-11-01T03:00:52.771Z,3.33
2023-11-01T03:01:24.663Z,3.42
2023-11-01T03:01:57.340Z,3.20
2023-11-01T03:02:29.042Z,3.15
2023-11-01T03:03:01.014Z,3.92
2023-11-01T03:03:32.641Z,3.15
2023-11-01T03:04:05.070Z,3.28
2023-11-01T03:04:36.678Z,3.05
2023-11-01T03:05:09.780Z,3.58
2023-11-01T03:05:41.427Z,3.25
2023-11-01T03:06:13.005Z,3.92
2023-11-01T03:06:44.676Z,2.65
2023-11-01T03:07:16.424Z,3.63
2023-11-01T03:07:48.099Z,3.08
2023-11-01T03:08:21.952Z,2.55
2023-11-01T03:08:53.593Z,3.75
2023-11-01T03:09:25.137Z,2.97
2023-11-01T03:09:56.760Z,4.13
2023-11-01T03:10:28.366Z,3.10
2023-11-01T03:11:00.857Z,3.95
2023-11-01T03:11:32.837Z,2.97
2023-11-01T03:12:05.537Z,2.78
2023-11-01T03:12:40.760Z,3.30
2023-11-01T03:13:12.394Z,3.53
2023-11-01T03:13:43.970Z,2.63
2023-11-01T03:14:15.605Z,3.22
2023-11-01T03:14:47.228Z,3.03
2023-11-01T03:15:19.085Z,2.63
2023-11-01T03:15:50.638Z,2.63
2023-11-01T03:16:22.262Z,2.40
2023-11-01T03:16:54.292Z,3.05
2023-11-01T03:17:25.984Z,2.50
2023-11-01T03:17:58.345Z,2.75
2023-11-01T03:18:30.033Z,3.10
2023-11-01T03:19:01.575Z,2.88
2023-11-01T03:19:33.122Z,2.90
2023-11-01T03:20:06.499Z,2.90
2023-11-01T03:20:39.624Z,2.88
2023-11-01T03:21:11.247Z,3.17
2023-11-01T03:21:43.190Z,3.10
2023-11-01T03:22:14.835Z,3.25
2023-11-01T03:22:46.403Z,3.53
2023-11-01T03:23:17.959Z,2.80
2023-11-01T03:23:50.047Z,3.33
2023-11-01T03:24:21.650Z,3.15
2023-11-01T03:24:53.292Z,3.75
2023-11-01T03:25:24.876Z,2.22
2023-11-01T03:25:56.488Z,3.70
2023-11-01T03:26:28.166Z,3.97
2023-11-01T03:27:00.784Z,3.00
2023-11-01T03:27:32.348Z,3.00
2023-11-01T03:28:05.048Z,3.13
2023-11-01T03:28:36.632Z,2.65
2023-11-01T03:29:08.195Z,2.58
2023-11-01T03:29:39.762Z,2.55
2023-11-01T03:30:11.594Z,2.47
2023-11-01T03:30:43.187Z,2.72
2023-11-01T03:31:14.936Z,2.50
2023-11-01T03:31:46.493Z,2.63
2023-11-01T03:32:18.207Z,3.83
2023-11-01T03:32:50.685Z,3.38
2023-11-01T03:33:22.286Z,2.38
2023-11-01T03:33:53.924Z,2.63
2023-11-01T03:34:25.901Z,2.75
2023-11-01T03:34:57.563Z,2.55
2023-11-01T03:35:31.892Z,3.83
2023-11-01T03:36:04.979Z,2.10
2023-11-01T03:36:36.530Z,2.30
2023-11-01T03:37:08.671Z,2.90
2023-11-01T03:37:41.110Z,2.50
2023-11-01T03:38:12.747Z,3.15
2023-11-01T03:38:44.751Z,3.05
2023-11-01T03:39:18.785Z,2.95
2023-11-01T03:39:50.432Z,2.63
2023-11-01T03:40:22.167Z,2.83
2023-11-01T03:40:53.754Z,2.80
2023-11-01T03:41:25.366Z,2.85
2023-11-01T03:41:59.964Z,2.22
2023-11-01T03:42:31.687Z,2.30
2023-11-01T03:43:05.508Z,2.78
2023-11-01T03:43:37.290Z,3.15
2023-11-01T03:44:09.351Z,2.55
2023-11-01T03:44:42.440Z,2.70
2023-11-01T03:45:15.111Z,2.47
2023-11-01T03:45:46.791Z,2.30
2023-11-01T03:46:18.403Z,2.47
2023-11-01T03:46:50.084Z,2.22
2023-11-01T03:47:21.697Z,2.38
2023-11-01T03:47:53.628Z,2.40
2023-11-01T03:48:25.287Z,2.25
2023-11-01T03:48:56.839Z,2.40
2023-11-01T03:49:30.890Z,2.67
2023-11-01T03:50:02.719Z,2.47
2023-11-01T03:50:34.435Z,3.05
2023-11-01T03:51:06.980Z,1.88
2023-11-01T03:51:38.617Z,2.58
2023-11-01T03:52:10.190Z,2.17
2023-11-01T03:52:41.746Z,2.83
2023-11-01T03:53:14.286Z,2.78
2023-11-01T03:53:45.978Z,2.30
2023-11-01T03:54:17.656Z,2.28
2023-11-01T03:54:49.308Z,2.10
2023-11-01T03:55:20.906Z,2.00
2023-11-01T03:55:52.499Z,2.05
2023-11-01T03:56:24.141Z,1.63
2023-11-01T03:56:55.730Z,2.08
2023-11-01T03:57:27.309Z,2.63
2023-11-01T03:57:58.972Z,2.58
2023-11-01T03:58:30.534Z,1.90
2023-11-01T03:59:02.131Z,2.03
2023-11-01T03:59:34.295Z,2.72
2023-11-01T04:00:06.665Z,1.67
2023-11-01T04:00:38.286Z,2.60
2023-11-01T04:01:09.869Z,2.42
2023-11-01T04:01:41.540Z,1.98
2023-11-01T04:02:13.169Z,1.98
2023-11-01T04:02:44.827Z,2.65
2023-11-01T04:03:17.971Z,2.38
2023-11-01T04:03:49.696Z,2.17
2023-11-01T04:04:21.418Z,1.75
2023-11-01T04:04:52.989Z,3.13
2023-11-01T04:05:24.577Z,2.00
2023-11-01T04:05:56.234Z,1.80
2023-11-01T04:06:27.762Z,1.83
2023-11-01T04:06:59.446Z,1.55
2023-11-01T04:07:31.035Z,1.58
2023-11-01T04:08:02.578Z,1.75
2023-11-01T04:08:34.267Z,1.95
2023-11-01T04:09:05.885Z,1.83
2023-11-01T04:09:37.493Z,1.92
2023-11-01T04:10:11.043Z,3.20
2023-11-01T04:10:42.650Z,1.80
2023-11-01T04:11:14.330Z,1.63
2023-11-01T04:11:45.900Z,1.90
2023-11-01T04:12:17.588Z,1.60
2023-11-01T04:12:49.137Z,1.55
2023-11-01T04:13:20.759Z,1.92
2023-11-01T04:13:52.401Z,1.80
2023-11-01T04:14:24.022Z,1.95
2023-11-01T04:14:55.631Z,1.75
2023-11-01T04:15:27.363Z,1.80
2023-11-01T04:15:59.317Z,1.80
2023-11-01T04:16:31.845Z,2.75
2023-11-01T04:17:03.446Z,2.08
2023-11-01T04:17:35.069Z,2.88
2023-11-01T04:18:06.749Z,2.03
2023-11-01T04:18:38.361Z,1.73
2023-11-01T04:19:12.321Z,2.33
2023-11-01T04:19:44.141Z,1.70
2023-11-01T04:20:16.001Z,1.50
2023-11-01T04:20:47.680Z,2.58
2023-11-01T04:21:19.627Z,2.22
2023-11-01T04:21:51.457Z,2.80
2023-11-01T04:22:23.038Z,1.95
2023-11-01T04:22:54.613Z,2.42
2023-11-01T04:23:26.344Z,1.67
2023-11-01T04:23:58.006Z,2.28
2023-11-01T04:24:29.881Z,1.88
2023-11-01T04:25:01.619Z,2.80
2023-11-01T04:25:33.784Z,2.00
2023-11-01T04:26:05.340Z,2.10
2023-11-01T04:26:37.458Z,2.25
2023-11-01T04:27:09.039Z,1.98
2023-11-01T04:27:43.882Z,2.47
2023-11-01T04:28:15.412Z,1.70
2023-11-01T04:28:47.060Z,2.65
2023-11-01T04:29:18.843Z,2.70
2023-11-01T04:29:55.344Z,3.33
2023-11-01T04:30:27.779Z,2.42
2023-11-01T04:31:00.186Z,1.88
2023-11-01T04:31:31.763Z,1.83
2023-11-01T04:32:03.814Z,2.55
2023-11-01T04:32:54.082Z,2.28
2023-11-01T04:33:25.789Z,2.38
2023-11-01T04:33:59.172Z,2.00
2023-11-01T04:34:30.733Z,2.53
2023-11-01T04:35:03.363Z,1.80
2023-11-01T04:35:37.755Z,2.25
2023-11-01T04:36:10.114Z,3.03
2023-11-01T04:36:44.617Z,2.05
2023-11-01T04:37:17.867Z,2.05
2023-11-01T04:37:49.448Z,2.30
2023-11-01T04:38:21.866Z,2.50
2023-11-01T04:38:54.467Z,2.30
2023-11-01T04:39:26.143Z,2.28
2023-11-01T04:39:57.729Z,2.60
2023-11-01T04:40:29.351Z,2.35
2023-11-01T04:41:00.947Z,2.50
2023-11-01T04:41:32.688Z,3.20
2023-11-01T04:42:05.556Z,2.72
2023-11-01T04:42:45.511Z,2.25
2023-11-01T04:43:19.070Z,2.53
2023-11-01T04:43:50.669Z,2.47
2023-11-01T04:44:22.345Z,2.20
2023-11-01T04:44:53.922Z,2.67
2023-11-01T04:45:26.466Z,2.75
2023-11-01T04:45:58.129Z,2.83
2023-11-01T04:46:29.757Z,2.30
2023-11-01T04:47:01.359Z,1.88
2023-11-01T04:47:33.618Z,3.35
2023-11-01T04:48:05.839Z,2.97
2023-11-01T04:48:37.398Z,2.80
2023-11-01T04:49:10.459Z,2.33
2023-11-01T04:49:42.103Z,2.33
2023-11-01T04:50:15.133Z,2.67
2023-11-01T04:50:49.689Z,3.17
2023-11-01T04:51:21.504Z,3.45
2023-11-01T04:51:53.190Z,3.83
2023-11-01T04:52:24.736Z,2.35
2023-11-01T04:52:56.323Z,4.13
2023-11-01T04:53:30.982Z,3.20
2023-11-01T04:54:07.384Z,2.67
2023-11-01T04:54:38.982Z,2.45
2023-11-01T04:55:14.425Z,2.78
2023-11-01T04:55:48.330Z,2.90
2023-11-01T04:56:20.773Z,2.05
2023-11-01T04:56:52.341Z,1.55
2023-11-01T04:57:23.906Z,2.92
2023-11-01T04:57:55.491Z,2.00
2023-11-01T04:58:27.116Z,2.38
2023-11-01T04:58:58.721Z,2.00
2023-11-01T04:59:31.392Z,2.20
2023-11-01T05:00:09.864Z,1.77
2023-11-01T05:00:41.830Z,1.75
2023-11-01T05:01:14.307Z,1.73
2023-11-01T05:01:48.683Z,2.13
2023-11-01T05:02:20.345Z,2.17
2023-11-01T05:02:52.881Z,2.90
2023-11-01T05:03:25.700Z,2.22
2023-11-01T05:03:57.349Z,2.22
2023-11-01T05:04:28.944Z,2.30
2023-11-01T05:05:00.566Z,2.15
2023-11-01T05:05:34.002Z,1.42
2023-11-01T05:06:06.656Z,1.75
2023-11-01T05:06:38.301Z,1.42
2023-11-01T05:07:09.852Z,1.50
2023-11-01T05:07:41.895Z,3.00
2023-11-01T05:08:13.471Z,1.98
2023-11-01T05:08:45.128Z,1.83
2023-11-01T05:09:16.907Z,1.95
2023-11-01T05:09:49.295Z,1.85
2023-11-01T05:10:20.843Z,1.73
2023-11-01T05:10:52.453Z,1.58
2023-11-01T05:11:24.108Z,1.67
2023-11-01T05:11:55.751Z,1.50
2023-11-01T05:12:27.361Z,2.00
2023-11-01T05:12:58.947Z,1.58
2023-11-01T05:13:30.502Z,1.80
2023-11-01T05:14:02.107Z,1.45
2023-11-01T05:14:33.835Z,1.45
2023-11-01T05:15:07.825Z,1.17
2023-11-01T05:15:40.829Z,1.20
2023-11-01T05:16:12.445Z,1.40
2023-11-01T05:16:44.057Z,1.52
2023-11-01T05:17:15.692Z,1.70
2023-11-01T05:17:47.850Z,1.55
2023-11-01T05:18:19.921Z,1.05
2023-11-01T05:18:51.548Z,1.27
2023-11-01T05:19:24.226Z,1.33
2023-11-01T05:19:55.917Z,1.52
2023-11-01T05:20:27.540Z,1.13
2023-11-01T05:20:59.278Z,1.42
2023-11-01T05:21:30.846Z,1.80
2023-11-01T05:22:02.378Z,1.17
2023-11-01T05:22:34.133Z,2.60
2023-11-01T05:23:05.716Z,1.42
2023-11-01T05:23:37.324Z,1.38
2023-11-01T05:24:09.155Z,1.20
2023-11-01T05:24:40.789Z,1.88
2023-11-01T05:25:15.360Z,1.30
2023-11-01T05:25:47.043Z,1.20
2023-11-01T05:26:19.149Z,1.00
2023-11-01T05:26:51.158Z,1.30
2023-11-01T05:27:22.826Z,1.83
2023-11-01T05:27:54.420Z,1.55
2023-11-01T05:28:26.149Z,1.45
2023-11-01T05:29:02.345Z,1.45
2023-11-01T05:29:34.784Z,1.20
2023-11-01T05:30:07.384Z,1.35
2023-11-01T05:30:39.079Z,1.30
2023-11-01T05:31:11.158Z,1.70
2023-11-01T05:31:42.720Z,1.55
2023-11-01T05:32:14.323Z,1.50
2023-11-01T05:32:47.337Z,1.42
2023-11-01T05:33:22.670Z,1.50
2023-11-01T05:33:54.970Z,2.00
2023-11-01T05:34:26.603Z,1.10
2023-11-01T05:34:58.224Z,1.20
2023-11-01T05:35:29.891Z,1.52
2023-11-01T05:36:07.683Z,1.45
2023-11-01T05:36:41.892Z,1.38
2023-11-01T05:37:13.594Z,1.50
2023-11-01T05:37:45.562Z,1.60
2023-11-01T05:38:17.325Z,1.42
2023-11-01T05:38:49.933Z,1.45
2023-11-01T05:39:21.567Z,1.65
2023-11-01T05:39:53.154Z,1.48
2023-11-01T05:40:24.806Z,1.90
2023-11-01T05:40:56.534Z,1.58
2023-11-01T05:41:28.167Z,1.55
2023-11-01T05:41:59.732Z,1.20
2023-11-01T05:42:31.328Z,1.50
2023-11-01T05:43:02.965Z,1.42
2023-11-01T05:43:34.647Z,1.65
2023-11-01T05:44:06.232Z,1.50
2023-11-01T05:44:37.804Z,1.77
2023-11-01T05:45:09.721Z,1.35
2023-11-01T05:45:41.916Z,1.05
2023-11-01T05:46:13.707Z,1.10
2023-11-01T05:46:46.332Z,1.30
2023-11-01T05:47:17.934Z,1.27
2023-11-01T05:47:53.739Z,1.20
2023-11-01T05:48:26.129Z,1.02
2023-11-01T05:48:57.719Z,1.30
2023-11-01T05:49:29.279Z,1.20
2023-11-01T05:50:00.826Z,1.60
2023-11-01T05:50:35.619Z,2.15
2023-11-01T05:51:07.671Z,1.40
2023-11-01T05:51:39.212Z,1.40
2023-11-01T05:52:10.868Z,1.27
2023-11-01T05:52:42.515Z,1.65
2023-11-01T05:53:14.088Z,1.80
2023-11-01T05:53:48.560Z,3.45
2023-11-01T05:54:20.180Z,1.20
2023-11-01T05:54:56.928Z,1.65
2023-11-01T05:55:38.527Z,1.60
2023-11-01T05:56:21.337Z,1.67
2023-11-01T05:56:52.917Z,1.25
2023-11-01T05:57:24.950Z,1.38
2023-11-01T05:57:56.561Z,1.75
2023-11-01T05:58:29.697Z,1.58
2023-11-01T05:59:01.364Z,1.50
2023-11-01T05:59:33.034Z,1.80
2023-11-01T06:00:11.722Z,1.45
2023-11-01T06:00:44.044Z,1.42
2023-11-01T06:01:16.093Z,1.80
2023-11-01T06:01:48.718Z,1.40
2023-11-01T06:02:20.430Z,1.70
2023-11-01T06:02:52.192Z,1.52
2023-11-01T06:03:27.439Z,1.38
2023-11-01T06:04:01.924Z,2.15
2023-11-01T06:04:33.900Z,1.83
2023-11-01T06:05:06.080Z,1.60
2023-11-01T06:05:37.746Z,1.30
2023-11-01T06:06:09.378Z,1.38
2023-11-01T06:06:41.469Z,1.63
2023-11-01T06:07:14.745Z,1.38
2023-11-01T06:07:46.577Z,2.03
2023-11-01T06:08:18.188Z,1.63
2023-11-01T06:08:49.786Z,2.45
2023-11-01T06:09:21.334Z,1.70
2023-11-01T06:09:52.861Z,2.15
2023-11-01T06:10:24.491Z,1.98
2023-11-01T06:10:56.201Z,1.85
2023-11-01T06:11:27.761Z,1.60
2023-11-01T06:11:59.417Z,1.70
2023-11-01T06:12:30.947Z,1.48
2023-11-01T06:13:03.147Z,1.88
2023-11-01T06:13:34.759Z,1.90
2023-11-01T06:14:07.760Z,2.83
2023-11-01T06:14:39.376Z,1.90
2023-11-01T06:15:11.480Z,1.80
2023-11-01T06:15:43.200Z,1.90
2023-11-01T06:16:14.770Z,2.55
2023-11-01T06:16:46.414Z,2.17
2023-11-01T06:17:18.033Z,2.03
2023-11-01T06:17:49.959Z,2.30
2023-11-01T06:18:23.242Z,2.20
2023-11-01T06:18:55.006Z,2.10
2023-11-01T06:19:27.175Z,2.88
2023-11-01T06:19:58.889Z,2.20
2023-11-01T06:20:30.474Z,2.22
2023-11-01T06:21:02.117Z,2.55
2023-11-01T06:21:33.718Z,2.20
2023-11-01T06:22:05.538Z,2.03
2023-11-01T06:22:37.288Z,2.42
2023-11-01T06:23:09.352Z,2.13
2023-11-01T06:23:41.031Z,2.47
2023-11-01T06:24:14.969Z,2.30
2023-11-01T06:24:46.572Z,2.30
2023-11-01T06:25:21.282Z,2.40
2023-11-01T06:25:53.063Z,2.67
2023-11-01T06:26:24.749Z,2.78
2023-11-01T06:26:56.364Z,2.58
2023-11-01T06:27:29.357Z,2.20
2023-11-01T06:28:01.116Z,2.47
2023-11-01T06:28:32.758Z,2.42
2023-11-01T06:29:04.446Z,2.40
2023-11-01T06:29:36.692Z,2.72
2023-11-01T06:30:08.840Z,2.92
2023-11-01T06:30:40.603Z,2.78
2023-11-01T06:31:13.997Z,2.03
2023-11-01T06:31:45.551Z,2.20
2023-11-01T06:32:17.282Z,3.25
2023-11-01T06:32:49.126Z,2.58
2023-11-01T06:33:20.961Z,2.85
2023-11-01T06:33:52.723Z,2.80
2023-11-01T06:34:24.337Z,2.88
2023-11-01T06:34:55.893Z,2.67
2023-11-01T06:35:27.522Z,3.00
2023-11-01T06:35:59.139Z,2.55
2023-11-01T06:36:30.868Z,2.83
2023-11-01T06:37:02.423Z,2.70
2023-11-01T06:37:33.992Z,2.90
2023-11-01T06:38:05.552Z,2.70
2023-11-01T06:38:37.633Z,2.90
2023-11-01T06:39:10.247Z,2.97
2023-11-01T06:39:41.786Z,3.25
2023-11-01T06:40:13.677Z,2.88
2023-11-01T06:40:45.415Z,2.70
2023-11-01T06:41:17.014Z,3.70
2023-11-01T06:41:48.673Z,2.63
2023-11-01T06:42:20.334Z,3.00
2023-11-01T06:42:52.541Z,2.85
2023-11-01T06:43:24.133Z,2.92
2023-11-01T06:43:55.674Z,3.03
2023-11-01T06:44:30.171Z,2.97
2023-11-01T06:45:01.766Z,3.15
2023-11-01T06:45:33.353Z,3.47
2023-11-01T06:46:05.017Z,3.13
2023-11-01T06:46:39.444Z,4.10
2023-11-01T06:47:11.078Z,3.42
2023-11-01T06:47:42.746Z,3.53
2023-11-01T06:48:17.079Z,3.03
2023-11-01T06:48:50.525Z,3.45
2023-11-01T06:49:32.224Z,3.40
2023-11-01T06:50:04.846Z,3.38
2023-11-01T06:51:00.910Z,3.85
2023-11-01T06:51:32.704Z,3.17
2023-11-01T06:52:06.183Z,3.72
2023-11-01T06:52:45.910Z,3.55
2023-11-01T06:53:17.685Z,3.78
2023-11-01T06:53:52.488Z,3.22
2023-11-01T06:54:30.505Z,3.20
2023-11-01T06:55:02.490Z,3.22
2023-11-01T06:55:37.153Z,3.55
2023-11-01T06:56:08.749Z,3.08
2023-11-01T06:56:49.406Z,3.60
2023-11-01T06:57:37.802Z,3.47
2023-11-01T06:58:11.491Z,3.38
2023-11-01T06:58:44.350Z,3.15
2023-11-01T06:59:21.849Z,3.10
2023-11-01T06:59:53.434Z,4.35
2023-11-01T07:00:28.392Z,3.05
2023-11-01T07:01:00.195Z,4.00
2023-11-01T07:01:34.129Z,3.80
2023-11-01T07:02:12.233Z,4.72
2023-11-01T07:02:44.514Z,2.88
2023-11-01T07:03:16.256Z,3.90
2023-11-01T07:03:48.013Z,3.10
2023-11-01T07:04:28.158Z,3.25
2023-11-01T07:04:59.833Z,2.72
2023-11-01T07:05:31.591Z,3.40
2023-11-01T07:06:03.388Z,3.78
2023-11-01T07:07:01.621Z,3.47
2023-11-01T07:07:45.099Z,3.50
2023-11-01T07:08:45.925Z,4.18
2023-11-01T07:09:17.742Z,3.08
2023-11-01T07:09:49.345Z,2.92
2023-11-01T07:10:20.889Z,3.90
2023-11-01T07:10:52.899Z,4.05
2023-11-01T07:11:26.249Z,3.25
2023-11-01T07:11:57.905Z,2.95
2023-11-01T07:12:29.536Z,3.38
2023-11-01T07:13:01.166Z,3.28
2023-11-01T07:13:32.926Z,3.50
2023-11-01T07:14:05.421Z,2.90
2023-11-01T07:14:37.136Z,3.50
2023-11-01T07:15:09.879Z,3.25
2023-11-01T07:15:41.526Z,3.53
2023-11-01T07:16:13.146Z,3.15
2023-11-01T07:16:53.451Z,3.72
2023-11-01T07:17:29.412Z,3.22
2023-11-01T07:18:01.609Z,3.70